ZW-0039 weather

Turwi River Airstrip
Masvingo Province, Zimbabwe

Public forecast

Using degrees Celsius for public forecast. Weather courtesy of forecast.io.

METAR (pilot weather report)

Report is more than 6 hours old.

Closest report is Buffalo Range Airport, 47.4 nm (87.7 km) SW. Retrieved 2019/04/16 12:00 UTC (9 days ago):

FVCZ 161200Z 00000KT 9999 FEW035 BKN100 29/22 Q1016

TAF (pilot weather forecast)

Forecast is more than 12 hours old.

Closest forecast is Buffalo Range Airport, 47.4 nm (87.7 km) SW. Retrieved 2015/02/14 05:42 UTC (4 years ago):

TAF FVCZ 140400Z 1405/1515 VRB04KT CAVOK